Accueil
METAR-TAF:

METAR-TAF

Aéroports :

Plate-forme pétrolière

Awg-1, Pays-Bas

latitude: 53-29-30N, longitude: 5-56-30E, altitude: 33 m

Observation

Le bulletin a été fait il y a 20 minutes, à 23:25 UTC
Vent 15 kt de est/nord-est, variant entre nord et sud
Température 15°C
Humidité 94%
Pression 1011 hPa
Visibilité 10 km ou plus

METAR: EHMA 192325Z AUTO 06015KT 010V170 9999 BKN007/// OVC008/// 15/14 Q1011

Heure: 01:45 (23:45 UTC)


TAF: absent

Observations et prévisions météorologiques de plus de 4000 aéroports (messages METAR et TAF).

Les stations disponibles sont représentées par des disques jaunes et rouges sur la carte.

Passer la souris dessus pour voir le nom de la station.

Cliquer dessus pour voir les observations et prévisions météorologiques.

Pour changer de carte: cliquez sur les boutons verts avec une croix noire pour zoomer, sur le bouton vert avec un tiret pour effectuer un zoom arrière, ou sur les flèches vertes pour les cartes adjacentes.


METAR-TAF: